Time;durP1;ratioP1;P1;durP2;ratioP2;P2;SDS_P1;SDS_P2;PMS_P1;PMS_P2;Temp;Humidity;BMP_temperature;BMP_pressure;BME280_temperature;BME280_humidity;BME280_pressure;Samples;Min_cycle;Max_cycle;Signal;HPM_P1;HPM_P2
2022/03/16 00:01:55;;;;;;;2.55;2.05;;;20.30;95.30;;;;;;4223311;28;20218;-74
2022/03/16 00:03:57;;;;;;;4.03;2.20;;;20.30;95.30;;;;;;4224228;27;20209;-74
2022/03/16 00:05:59;;;;;;;2.97;2.00;;;20.30;95.30;;;;;;4223194;28;20617;-74
2022/03/16 00:08:01;;;;;;;3.13;2.13;;;20.30;95.40;;;;;;4224310;28;20449;-74
2022/03/16 00:10:04;;;;;;;2.22;2.00;;;20.30;95.40;;;;;;4222480;28;20222;-74
2022/03/16 00:12:07;;;;;;;3.00;2.05;;;20.30;95.60;;;;;;4222891;27;20271;-74
2022/03/16 00:14:10;;;;;;;2.38;1.85;;;20.20;95.20;;;;;;4223404;28;20217;-74
2022/03/16 00:16:13;;;;;;;3.30;2.45;;;20.20;95.30;;;;;;4222943;28;20271;-74
2022/03/16 00:18:16;;;;;;;2.78;2.22;;;20.20;95.20;;;;;;4224743;27;20218;-74
2022/03/16 00:20:18;;;;;;;4.57;2.25;;;20.20;95.30;;;;;;4221177;28;20218;-74
2022/03/16 00:22:20;;;;;;;4.20;2.47;;;20.20;95.30;;;;;;4220043;28;20670;-74
2022/03/16 00:24:23;;;;;;;2.63;2.10;;;20.20;95.30;;;;;;4225076;27;20230;-74
2022/03/16 00:26:25;;;;;;;2.95;2.35;;;20.20;95.40;;;;;;4222711;28;20217;-74
2022/03/16 00:28:27;;;;;;;3.08;2.20;;;20.20;95.20;;;;;;4223647;28;20210;-74
2022/03/16 00:30:30;;;;;;;2.63;2.20;;;20.20;95.30;;;;;;4225976;27;20256;-74
2022/03/16 00:32:34;;;;;;;2.30;2.08;;;20.20;95.30;;;;;;4221621;27;20673;-74
2022/03/16 00:34:36;;;;;;;2.85;2.17;;;20.10;95.20;;;;;;4220541;27;20758;-74
2022/03/16 00:36:38;;;;;;;2.90;2.30;;;20.20;95.40;;;;;;4219513;27;20612;-74
2022/03/16 00:38:41;;;;;;;2.75;2.15;;;20.20;95.30;;;;;;4221723;28;20234;-74
2022/03/16 00:40:43;;;;;;;4.35;2.38;;;20.20;95.20;;;;;;4220217;27;20217;-74
2022/03/16 00:42:45;;;;;;;2.53;1.92;;;20.20;95.20;;;;;;4218876;28;20262;-74
2022/03/16 00:44:47;;;;;;;2.70;2.30;;;20.20;95.20;;;;;;4220645;28;20868;-74
2022/03/16 00:46:50;;;;;;;2.97;2.42;;;20.10;95.20;;;;;;4222629;28;20209;-74
2022/03/16 00:48:53;;;;;;;3.00;2.38;;;20.10;95.40;;;;;;4219653;28;20222;-74
2022/03/16 00:50:56;;;;;;;2.67;2.17;;;20.10;95.30;;;;;;4221259;28;20319;-74
2022/03/16 00:52:58;;;;;;;3.08;2.20;;;20.10;95.20;;;;;;4223366;28;20266;-74
2022/03/16 00:55:01;;;;;;;2.60;2.20;;;20.20;95.30;;;;;;4214045;28;20957;-74
2022/03/16 00:57:03;;;;;;;2.40;2.20;;;20.10;95.20;;;;;;4221660;28;20237;-74
2022/03/16 00:59:06;;;;;;;3.08;2.40;;;20.10;95.30;;;;;;4226543;27;20217;-74
2022/03/16 01:01:09;;;;;;;3.45;2.53;;;20.10;95.20;;;;;;4222674;28;20209;-74
2022/03/16 01:03:12;;;;;;;3.03;2.50;;;20.10;95.10;;;;;;4222144;28;20239;-74
2022/03/16 01:05:16;;;;;;;3.60;2.28;;;20.10;95.20;;;;;;4223960;28;20259;-74
2022/03/16 01:07:18;;;;;;;2.75;2.20;;;20.00;95.20;;;;;;4220078;28;20633;-74
2022/03/16 01:09:21;;;;;;;2.90;2.60;;;20.10;95.20;;;;;;4222837;28;20225;-74
2022/03/16 01:11:23;;;;;;;2.75;2.28;;;20.10;95.10;;;;;;4224604;28;20217;-74
2022/03/16 01:13:25;;;;;;;2.60;2.40;;;20.10;95.10;;;;;;4224779;28;20221;-74
2022/03/16 01:15:28;;;;;;;2.58;2.38;;;20.00;95.10;;;;;;4219914;28;20611;-74
2022/03/16 01:17:30;;;;;;;3.58;2.30;;;20.10;95.10;;;;;;4222985;28;20278;-74
2022/03/16 01:19:34;;;;;;;3.88;2.17;;;20.00;95.10;;;;;;4223920;28;20270;-74
2022/03/16 01:21:38;;;;;;;2.60;2.40;;;20.00;95.10;;;;;;4222357;28;20251;-74
2022/03/16 01:23:40;;;;;;;3.58;2.53;;;20.00;95.20;;;;;;4215080;28;20226;-74
2022/03/16 01:25:43;;;;;;;3.30;2.33;;;20.00;95.10;;;;;;4223928;28;20213;-74
2022/03/16 01:27:45;;;;;;;2.85;2.17;;;20.00;95.10;;;;;;4223471;28;20213;-74
2022/03/16 01:29:47;;;;;;;3.10;2.45;;;20.00;95.20;;;;;;4209276;28;20655;-74
2022/03/16 01:31:50;;;;;;;2.90;2.58;;;20.00;95.20;;;;;;4217536;28;20206;-74
2022/03/16 01:33:52;;;;;;;2.45;2.25;;;20.00;95.20;;;;;;4221591;28;20209;-75
2022/03/16 01:35:54;;;;;;;2.85;2.35;;;20.00;95.00;;;;;;4220579;28;20221;-74
2022/03/16 01:37:58;;;;;;;2.60;2.40;;;20.00;95.00;;;;;;4221969;28;20307;-74
2022/03/16 01:40:01;;;;;;;2.97;2.42;;;20.00;95.00;;;;;;4221787;28;20263;-74
2022/03/16 01:42:04;;;;;;;2.70;2.50;;;20.00;95.10;;;;;;4221252;28;20313;-74
2022/03/16 01:44:06;;;;;;;2.75;2.28;;;19.90;95.10;;;;;;4220588;28;20206;-74
2022/03/16 01:46:09;;;;;;;2.65;2.30;;;19.90;95.10;;;;;;4224625;28;20210;-74
2022/03/16 01:48:11;;;;;;;2.83;2.38;;;20.00;95.10;;;;;;4221592;28;20214;-74
2022/03/16 01:50:13;;;;;;;2.58;2.28;;;19.90;95.10;;;;;;4221020;28;20209;-74
2022/03/16 01:52:19;;;;;;;2.45;2.25;;;19.90;95.00;;;;;;4222487;28;20223;-74
2022/03/16 01:54:22;;;;;;;3.00;2.60;;;19.90;95.10;;;;;;4222860;28;20612;-74
2022/03/16 01:56:25;;;;;;;4.28;2.50;;;19.90;95.00;;;;;;4221231;28;20303;-74
2022/03/16 01:58:27;;;;;;;3.00;2.53;;;19.90;95.00;;;;;;4222127;28;20380;-74
2022/03/16 02:00:29;;;;;;;3.60;2.47;;;19.90;95.40;;;;;;4222969;28;20225;-74
2022/03/16 02:02:31;;;;;;;2.20;2.00;;;19.90;95.10;;;;;;4223534;28;20209;-74
2022/03/16 02:04:34;;;;;;;2.45;2.15;;;19.90;95.00;;;;;;4219722;28;20222;-74
2022/03/16 02:06:36;;;;;;;3.00;2.45;;;19.90;95.10;;;;;;4223412;28;20202;-74
2022/03/16 02:08:40;;;;;;;3.55;2.33;;;19.90;95.00;;;;;;4220833;28;20210;-74
2022/03/16 02:10:44;;;;;;;2.60;2.30;;;19.90;94.90;;;;;;4221642;28;20214;-74
2022/03/16 02:12:49;;;;;;;3.00;2.35;;;19.90;95.10;;;;;;4223760;28;20274;-74
2022/03/16 02:14:51;;;;;;;3.20;2.45;;;19.80;95.00;;;;;;4225248;27;20209;-74
2022/03/16 02:16:56;;;;;;;2.78;2.40;;;19.90;95.00;;;;;;4225477;28;20291;-74
2022/03/16 02:18:58;;;;;;;2.97;2.50;;;19.80;95.00;;;;;;4227815;27;20213;-74
2022/03/16 02:21:02;;;;;;;3.33;2.50;;;19.90;95.00;;;;;;4226505;27;20252;-74
2022/03/16 02:23:08;;;;;;;3.15;2.55;;;19.90;95.00;;;;;;4225640;27;20209;-74
2022/03/16 02:25:10;;;;;;;2.58;2.38;;;19.80;94.90;;;;;;4224362;28;20218;-74
2022/03/16 02:27:13;;;;;;;4.50;2.35;;;19.80;94.90;;;;;;4225198;28;20213;-74
2022/03/16 02:29:15;;;;;;;2.83;2.58;;;19.80;95.00;;;;;;4223754;27;20628;-74
2022/03/16 02:31:18;;;;;;;3.00;2.55;;;19.80;94.90;;;;;;4224613;27;20222;-74
2022/03/16 02:33:20;;;;;;;2.08;1.85;;;19.80;94.90;;;;;;4223639;28;20223;-74
2022/03/16 02:35:23;;;;;;;2.42;1.98;;;19.80;95.00;;;;;;4225671;27;20243;-74
2022/03/16 02:37:25;;;;;;;2.80;2.40;;;19.80;94.90;;;;;;4224999;27;20237;-74
2022/03/16 02:39:29;;;;;;;2.63;2.30;;;19.80;95.10;;;;;;4218236;28;20218;-74
2022/03/16 02:41:31;;;;;;;2.47;2.28;;;19.80;94.90;;;;;;4225643;28;20630;-76
2022/03/16 02:43:33;;;;;;;2.60;2.40;;;19.80;94.80;;;;;;4226015;28;20210;-76
2022/03/16 02:45:36;;;;;;;3.25;2.20;;;19.80;94.90;;;;;;4225031;28;20266;-75
2022/03/16 02:47:39;;;;;;;2.45;2.25;;;19.80;94.80;;;;;;4225898;28;20535;-76
2022/03/16 02:49:41;;;;;;;2.25;2.05;;;19.80;95.20;;;;;;4227598;28;20222;-76
2022/03/16 02:51:43;;;;;;;3.03;2.60;;;19.80;94.90;;;;;;4227445;28;20218;-76
2022/03/16 02:53:46;;;;;;;3.25;2.22;;;19.70;94.80;;;;;;4227556;27;20221;-76
2022/03/16 02:55:50;;;;;;;2.58;2.30;;;19.80;94.80;;;;;;4222271;27;20263;-75
2022/03/16 02:57:52;;;;;;;2.92;2.20;;;19.70;94.70;;;;;;4222232;28;20233;-76
2022/03/16 02:59:55;;;;;;;2.40;2.20;;;19.70;95.00;;;;;;4224946;28;20266;-75
2022/03/16 03:01:57;;;;;;;3.15;2.30;;;19.80;94.80;;;;;;4225565;28;20221;-76
2022/03/16 03:04:00;;;;;;;2.80;2.20;;;19.70;94.80;;;;;;4225436;28;20214;-75
2022/03/16 03:06:02;;;;;;;3.90;2.67;;;19.70;94.80;;;;;;4226465;27;20219;-76
2022/03/16 03:08:05;;;;;;;2.63;2.20;;;19.70;94.80;;;;;;4225375;27;20251;-76
2022/03/16 03:10:08;;;;;;;3.15;2.30;;;19.70;94.90;;;;;;4221496;27;20602;-76
2022/03/16 03:12:12;;;;;;;2.78;2.25;;;19.70;94.90;;;;;;4221666;27;20214;-76
2022/03/16 03:14:15;;;;;;;2.60;2.40;;;19.70;94.80;;;;;;4221537;27;20271;-76
2022/03/16 03:16:17;;;;;;;2.50;2.30;;;19.70;94.80;;;;;;4223997;28;20255;-76
2022/03/16 03:18:19;;;;;;;2.80;2.50;;;19.70;94.70;;;;;;4222203;27;20275;-76
2022/03/16 03:20:22;;;;;;;2.88;2.60;;;19.70;94.60;;;;;;4225296;27;20553;-75
2022/03/16 03:22:27;;;;;;;2.30;2.10;;;19.70;94.50;;;;;;4222432;27;20275;-75
2022/03/16 03:24:30;;;;;;;2.70;2.22;;;19.70;94.80;;;;;;4220206;28;20280;-76
2022/03/16 03:26:33;;;;;;;2.92;2.45;;;19.70;94.80;;;;;;4219996;28;20218;-76
2022/03/16 03:28:36;;;;;;;2.95;2.05;;;19.70;94.70;;;;;;4221534;28;20218;-75
2022/03/16 03:30:39;;;;;;;2.30;2.08;;;19.70;94.60;;;;;;4225042;28;20252;-76
2022/03/16 03:32:42;;;;;;;2.38;2.17;;;19.70;94.60;;;;;;4224644;28;20256;-75
2022/03/16 03:34:46;;;;;;;3.03;2.33;;;19.70;94.60;;;;;;4225312;28;20274;-75
2022/03/16 03:36:49;;;;;;;2.53;2.30;;;19.70;94.60;;;;;;4222446;28;20715;-75
2022/03/16 03:38:51;;;;;;;2.75;2.13;;;19.60;94.60;;;;;;4222787;27;20778;-76
2022/03/16 03:40:53;;;;;;;3.50;2.38;;;19.60;94.50;;;;;;4221159;28;20615;-76
2022/03/16 03:42:55;;;;;;;3.42;2.55;;;19.70;94.70;;;;;;4221966;27;20214;-75
2022/03/16 03:44:59;;;;;;;2.42;2.22;;;19.70;94.80;;;;;;4222965;27;20207;-75
2022/03/16 03:47:01;;;;;;;2.72;2.00;;;19.60;94.60;;;;;;4221064;28;20214;-75
2022/03/16 03:49:04;;;;;;;2.92;2.53;;;19.60;94.70;;;;;;4221118;28;20201;-76
2022/03/16 03:51:06;;;;;;;3.47;2.55;;;19.60;94.80;;;;;;4220217;27;20286;-76
2022/03/16 03:53:08;;;;;;;3.15;2.58;;;19.60;94.50;;;;;;4221929;28;20731;-75
2022/03/16 03:55:11;;;;;;;2.63;2.25;;;19.70;94.50;;;;;;4221052;27;20309;-75
2022/03/16 03:57:13;;;;;;;3.13;2.42;;;19.60;94.50;;;;;;4221092;27;20209;-75
2022/03/16 03:59:15;;;;;;;2.83;2.22;;;19.60;94.50;;;;;;4222880;27;20214;-76
2022/03/16 04:01:19;;;;;;;2.53;2.30;;;19.60;94.40;;;;;;4223094;27;20685;-76
2022/03/16 04:03:21;;;;;;;2.90;2.60;;;19.60;94.50;;;;;;4222985;27;20222;-75
2022/03/16 04:05:26;;;;;;;3.05;2.63;;;19.60;94.50;;;;;;4221617;27;20218;-76
2022/03/16 04:07:28;;;;;;;2.47;2.10;;;19.60;94.60;;;;;;4222206;28;20247;-75
2022/03/16 04:09:30;;;;;;;2.42;2.22;;;19.60;94.60;;;;;;4220067;28;20225;-75
2022/03/16 04:11:33;;;;;;;2.60;2.15;;;19.60;94.30;;;;;;4220023;28;20230;-76
2022/03/16 04:13:36;;;;;;;2.35;2.03;;;19.60;94.40;;;;;;4222596;28;20218;-76
2022/03/16 04:15:38;;;;;;;3.47;2.50;;;19.60;94.40;;;;;;4221797;28;20230;-76
2022/03/16 04:17:42;;;;;;;2.63;2.30;;;19.60;94.50;;;;;;4219883;28;20215;-76
2022/03/16 04:19:44;;;;;;;2.95;2.53;;;19.60;94.50;;;;;;4220421;28;20256;-76
2022/03/16 04:21:46;;;;;;;2.55;2.35;;;19.60;94.50;;;;;;4220913;28;20225;-76
2022/03/16 04:23:49;;;;;;;2.63;2.30;;;19.60;94.40;;;;;;4220616;28;20928;-76
2022/03/16 04:25:51;;;;;;;2.60;2.30;;;19.60;94.50;;;;;;4222152;28;20222;-76
2022/03/16 04:27:53;;;;;;;3.95;2.53;;;19.60;94.30;;;;;;4218879;28;20255;-75
2022/03/16 04:29:56;;;;;;;2.95;2.65;;;19.60;94.40;;;;;;4220746;28;20278;-75
2022/03/16 04:31:59;;;;;;;2.13;1.92;;;19.60;94.30;;;;;;4223084;28;20605;-76
2022/03/16 04:34:02;;;;;;;2.85;2.20;;;19.60;94.40;;;;;;4224747;27;20218;-74
2022/03/16 04:36:05;;;;;;;2.65;2.38;;;19.60;94.30;;;;;;4218574;28;20217;-74
2022/03/16 04:38:08;;;;;;;2.65;2.22;;;19.60;94.30;;;;;;4211383;28;20237;-74
2022/03/16 04:40:12;;;;;;;2.50;2.13;;;19.60;94.30;;;;;;4205541;28;20218;-74
2022/03/16 04:42:14;;;;;;;3.45;2.60;;;19.60;94.30;;;;;;4202220;28;20219;-74
2022/03/16 04:44:17;;;;;;;3.05;2.10;;;19.50;94.30;;;;;;4201033;28;20272;-74
2022/03/16 04:46:19;;;;;;;2.17;1.98;;;19.50;94.30;;;;;;4205808;28;20632;-74
2022/03/16 04:48:21;;;;;;;2.50;2.22;;;19.50;94.30;;;;;;4205257;28;20211;-75
2022/03/16 04:50:25;;;;;;;2.58;2.20;;;19.60;94.30;;;;;;4206741;28;20271;-75
2022/03/16 04:52:27;;;;;;;2.85;2.40;;;19.50;94.30;;;;;;4207225;28;20218;-76
2022/03/16 04:54:30;;;;;;;2.30;2.00;;;19.60;94.30;;;;;;4207030;28;20271;-76
2022/03/16 04:56:34;;;;;;;2.25;1.98;;;19.50;94.30;;;;;;4205755;28;20227;-75
2022/03/16 04:58:38;;;;;;;2.70;2.50;;;19.50;94.40;;;;;;4205871;28;20392;-76
2022/03/16 05:00:40;;;;;;;3.08;2.40;;;19.50;94.30;;;;;;4205849;28;20215;-76
2022/03/16 05:02:42;;;;;;;2.63;2.10;;;19.50;94.30;;;;;;4205160;28;20268;-76
2022/03/16 05:04:45;;;;;;;3.05;2.40;;;19.50;94.30;;;;;;4205252;28;20666;-76
2022/03/16 05:06:48;;;;;;;2.45;2.00;;;19.50;94.40;;;;;;4207275;28;20670;-76
2022/03/16 05:08:51;;;;;;;2.83;2.30;;;19.50;94.20;;;;;;4205018;28;20215;-75
2022/03/16 05:10:53;;;;;;;2.50;2.20;;;19.50;94.30;;;;;;4205028;28;20219;-75
2022/03/16 05:12:55;;;;;;;3.08;2.63;;;19.50;94.30;;;;;;4205756;28;20622;-75
2022/03/16 05:14:58;;;;;;;4.07;2.28;;;19.50;94.20;;;;;;4205030;28;20214;-75
2022/03/16 05:17:00;;;;;;;2.20;2.00;;;19.50;94.30;;;;;;4207144;28;20259;-76
2022/03/16 05:19:02;;;;;;;2.53;2.20;;;19.50;94.20;;;;;;4206975;28;20242;-75
2022/03/16 05:21:07;;;;;;;3.90;2.20;;;19.50;94.20;;;;;;4204641;28;20276;-75
2022/03/16 05:23:11;;;;;;;2.53;2.33;;;19.50;94.10;;;;;;4206072;28;20256;-76
2022/03/16 05:25:15;;;;;;;2.72;2.28;;;19.40;94.10;;;;;;4206604;28;20256;-76
2022/03/16 05:27:19;;;;;;;2.75;2.30;;;19.50;94.20;;;;;;4202689;28;20666;-76
2022/03/16 05:29:21;;;;;;;2.35;2.15;;;19.50;94.20;;;;;;4204590;28;20202;-76
2022/03/16 05:31:24;;;;;;;2.70;2.08;;;19.50;94.20;;;;;;4209505;28;20219;-76
2022/03/16 05:33:26;;;;;;;2.40;2.20;;;19.40;94.10;;;;;;4206302;28;20224;-75
2022/03/16 05:35:29;;;;;;;2.83;2.10;;;19.40;94.20;;;;;;4204354;28;20218;-76
2022/03/16 05:37:31;;;;;;;2.70;2.35;;;19.40;94.20;;;;;;4210320;28;20282;-76
2022/03/16 05:39:35;;;;;;;2.20;2.00;;;19.40;94.10;;;;;;4225016;28;20245;-76
2022/03/16 05:41:37;;;;;;;2.33;2.10;;;19.40;94.10;;;;;;4222481;28;20230;-76
2022/03/16 05:43:40;;;;;;;3.20;2.00;;;19.40;94.20;;;;;;4223271;28;20210;-75
2022/03/16 05:45:42;;;;;;;2.97;2.20;;;19.50;94.30;;;;;;4223886;28;20295;-75
2022/03/16 05:47:45;;;;;;;2.75;2.20;;;19.40;94.20;;;;;;4223924;28;20210;-75
2022/03/16 05:49:47;;;;;;;2.45;2.20;;;19.40;94.50;;;;;;4227215;27;20218;-75
2022/03/16 05:51:49;;;;;;;2.40;2.20;;;19.40;94.20;;;;;;4225767;28;20257;-75
2022/03/16 05:53:52;;;;;;;2.55;2.28;;;19.30;94.00;;;;;;4225055;28;20221;-76
2022/03/16 05:55:55;;;;;;;3.05;2.10;;;19.30;94.00;;;;;;4225319;27;20631;-75
2022/03/16 05:57:58;;;;;;;3.65;2.28;;;19.20;94.10;;;;;;4226124;28;20620;-76
2022/03/16 06:00:00;;;;;;;2.53;2.33;;;19.30;94.10;;;;;;4225917;28;20274;-76
2022/03/16 06:02:02;;;;;;;2.53;2.10;;;19.30;93.80;;;;;;4228952;27;20222;-76
2022/03/16 06:04:05;;;;;;;2.53;2.22;;;19.30;93.90;;;;;;4226565;28;20222;-75
2022/03/16 06:06:07;;;;;;;2.40;2.20;;;19.30;94.00;;;;;;4225192;28;20210;-75
2022/03/16 06:08:09;;;;;;;2.92;2.55;;;19.30;94.30;;;;;;4225376;28;20217;-76
2022/03/16 06:10:16;;;;;;;2.30;2.10;;;19.40;94.20;;;;;;4226665;28;21043;-76
2022/03/16 06:12:20;;;;;;;2.63;2.28;;;19.40;94.30;;;;;;4227015;28;20264;-75
2022/03/16 06:14:23;;;;;;;2.53;2.20;;;19.50;94.70;;;;;;4226647;28;20226;-75
2022/03/16 06:16:25;;;;;;;2.47;1.92;;;19.40;94.40;;;;;;4216333;28;20213;-75
2022/03/16 06:18:27;;;;;;;1.90;1.80;;;19.40;94.40;;;;;;4223409;28;20249;-75
2022/03/16 06:20:30;;;;;;;2.80;2.40;;;19.50;95.00;;;;;;4222695;28;20234;-75
2022/03/16 06:22:32;;;;;;;2.75;2.17;;;19.40;94.60;;;;;;4215291;28;20270;-75
2022/03/16 06:24:34;;;;;;;2.47;2.08;;;19.40;94.50;;;;;;4222259;28;20218;-76
2022/03/16 06:26:36;;;;;;;2.65;2.45;;;19.50;94.60;;;;;;4227076;27;20222;-76
2022/03/16 06:28:40;;;;;;;2.58;2.38;;;19.50;94.50;;;;;;4228935;27;20255;-75
2022/03/16 06:30:42;;;;;;;2.38;2.17;;;19.50;94.60;;;;;;4221709;28;20658;-76
2022/03/16 06:32:46;;;;;;;2.67;2.42;;;19.50;94.70;;;;;;4219034;28;20616;-75
2022/03/16 06:34:48;;;;;;;2.92;2.45;;;19.50;94.60;;;;;;4225641;28;20267;-75
2022/03/16 06:36:51;;;;;;;2.72;2.50;;;19.60;94.70;;;;;;4225830;27;20263;-76
2022/03/16 06:38:53;;;;;;;2.75;2.53;;;19.60;94.60;;;;;;4225545;28;20286;-75
2022/03/16 06:40:55;;;;;;;3.70;2.40;;;19.60;94.70;;;;;;4226282;28;20219;-76
2022/03/16 06:42:59;;;;;;;2.25;2.05;;;19.60;94.70;;;;;;4226725;28;20217;-76
2022/03/16 06:45:03;;;;;;;2.50;2.30;;;19.60;94.70;;;;;;4225998;28;20744;-75
2022/03/16 06:47:06;;;;;;;2.40;2.20;;;19.60;94.70;;;;;;4225815;28;20214;-76
2022/03/16 06:49:08;;;;;;;3.08;2.15;;;19.60;94.70;;;;;;4226581;28;20210;-76
2022/03/16 06:51:11;;;;;;;2.40;2.20;;;19.60;94.80;;;;;;4226405;28;20726;-76
2022/03/16 06:53:13;;;;;;;2.85;2.20;;;19.60;94.60;;;;;;4225518;28;20873;-76
2022/03/16 06:55:16;;;;;;;2.53;2.05;;;19.60;94.80;;;;;;4224912;28;20206;-75
2022/03/16 06:57:18;;;;;;;2.30;2.00;;;19.60;94.70;;;;;;4225507;27;20206;-76
2022/03/16 06:59:21;;;;;;;2.38;2.17;;;19.70;94.70;;;;;;4227318;28;20233;-75
2022/03/16 07:01:24;;;;;;;2.30;2.08;;;19.70;94.80;;;;;;4227090;28;20226;-76
2022/03/16 07:03:27;;;;;;;3.13;2.05;;;19.70;94.70;;;;;;4225638;27;20618;-75
2022/03/16 07:05:30;;;;;;;3.10;1.95;;;19.70;94.70;;;;;;4226210;27;20642;-76
2022/03/16 07:07:33;;;;;;;2.20;2.00;;;19.70;94.90;;;;;;4226122;28;20222;-76
2022/03/16 07:09:35;;;;;;;4.22;2.30;;;19.70;94.80;;;;;;4226449;28;20266;-76
2022/03/16 07:11:37;;;;;;;2.60;2.30;;;19.80;94.80;;;;;;4225583;28;20279;-76
2022/03/16 07:13:41;;;;;;;2.30;2.10;;;19.70;94.70;;;;;;4227063;27;20209;-75
2022/03/16 07:15:45;;;;;;;2.55;1.85;;;19.80;94.80;;;;;;4224812;28;20642;-76
2022/03/16 07:17:49;;;;;;;3.22;2.33;;;19.80;94.80;;;;;;4223995;28;20213;-76
2022/03/16 07:19:51;;;;;;;3.10;2.17;;;19.80;94.70;;;;;;4223559;27;20291;-76
2022/03/16 07:21:54;;;;;;;2.20;2.00;;;19.80;94.80;;;;;;4223758;27;20215;-76
2022/03/16 07:23:56;;;;;;;2.15;1.95;;;19.80;94.70;;;;;;4223983;27;20214;-76
2022/03/16 07:25:58;;;;;;;2.63;2.42;;;19.80;94.90;;;;;;4210302;28;20248;-76
2022/03/16 07:28:01;;;;;;;3.70;1.92;;;19.80;94.70;;;;;;4224105;28;20243;-76
2022/03/16 07:30:04;;;;;;;3.05;2.10;;;19.90;94.70;;;;;;4224935;28;20278;-76
2022/03/16 07:32:07;;;;;;;2.30;2.08;;;19.90;94.70;;;;;;4223952;28;20259;-75
2022/03/16 07:34:12;;;;;;;2.55;2.20;;;19.90;94.70;;;;;;4225801;27;20218;-76
2022/03/16 07:36:14;;;;;;;3.58;2.22;;;19.90;94.90;;;;;;4227202;28;20646;-76
2022/03/16 07:38:17;;;;;;;2.20;2.00;;;19.90;94.60;;;;;;4226291;28;20229;-76
2022/03/16 07:40:19;;;;;;;2.80;1.95;;;19.90;94.90;;;;;;4225629;27;20330;-76
2022/03/16 07:42:22;;;;;;;2.40;1.95;;;20.00;94.70;;;;;;4224804;28;20287;-76
2022/03/16 07:44:24;;;;;;;2.00;1.80;;;20.00;94.90;;;;;;4224735;28;20222;-76
2022/03/16 07:46:27;;;;;;;3.08;2.22;;;20.00;94.60;;;;;;4226716;27;20753;-76
2022/03/16 07:48:29;;;;;;;2.97;2.25;;;20.00;94.70;;;;;;4219424;27;20612;-76
2022/03/16 07:50:33;;;;;;;4.05;2.30;;;20.20;95.00;;;;;;4223263;27;20262;-75
2022/03/16 07:52:35;;;;;;;4.20;2.65;;;20.10;94.50;;;;;;4220618;28;20218;-77
2022/03/16 07:54:38;;;;;;;3.92;2.25;;;20.10;94.40;;;;;;4225069;27;20222;-76
2022/03/16 07:56:41;;;;;;;3.92;2.22;;;20.20;95.40;;;;;;4226410;27;20601;-77
2022/03/16 07:58:45;;;;;;;2.97;2.55;;;20.20;95.20;;;;;;4219937;28;20218;-77
2022/03/16 08:00:47;;;;;;;2.70;2.13;;;20.30;95.10;;;;;;4222373;28;20279;-77
2022/03/16 08:02:49;;;;;;;2.53;1.90;;;20.20;94.90;;;;;;4221605;28;20221;-76
2022/03/16 08:04:52;;;;;;;3.45;1.98;;;20.30;95.10;;;;;;4220720;28;20311;-77
2022/03/16 08:06:55;;;;;;;3.70;2.13;;;20.30;95.10;;;;;;4222932;28;20672;-77
2022/03/16 08:08:59;;;;;;;5.85;2.25;;;20.30;95.00;;;;;;4222233;28;20217;-75
2022/03/16 08:11:01;;;;;;;2.42;2.00;;;20.40;95.40;;;;;;4222765;27;20213;-76
2022/03/16 08:13:04;;;;;;;2.33;2.08;;;20.40;95.20;;;;;;4226598;27;20217;-76
2022/03/16 08:15:07;;;;;;;2.20;1.83;;;20.40;95.20;;;;;;4223050;27;20944;-75
2022/03/16 08:17:09;;;;;;;2.53;2.03;;;20.40;95.40;;;;;;4224355;28;20258;-75
2022/03/16 08:19:13;;;;;;;2.22;1.95;;;20.40;95.20;;;;;;4228668;27;20700;-77
2022/03/16 08:21:16;;;;;;;2.38;2.17;;;20.40;94.90;;;;;;4219875;27;20354;-77
2022/03/16 08:23:19;;;;;;;3.15;2.40;;;20.50;95.10;;;;;;4222969;27;20235;-75
2022/03/16 08:25:21;;;;;;;3.17;2.20;;;20.50;94.80;;;;;;4224058;27;20214;-78
2022/03/16 08:27:24;;;;;;;2.50;1.92;;;20.60;95.50;;;;;;4222894;27;20294;-77
2022/03/16 08:29:27;;;;;;;4.70;2.30;;;20.60;95.50;;;;;;4219877;27;20274;-77
2022/03/16 08:31:29;;;;;;;3.10;2.30;;;20.60;94.90;;;;;;4224842;27;20205;-76
2022/03/16 08:33:31;;;;;;;2.42;2.13;;;20.60;95.10;;;;;;4224254;27;21038;-76
2022/03/16 08:35:34;;;;;;;2.55;2.00;;;20.70;95.10;;;;;;4228105;27;20620;-77
2022/03/16 08:37:36;;;;;;;2.60;2.03;;;20.70;95.40;;;;;;4211907;28;20267;-77
2022/03/16 08:39:41;;;;;;;4.75;2.17;;;20.70;95.40;;;;;;4204106;28;20214;-78
2022/03/16 08:41:44;;;;;;;2.97;1.98;;;20.70;95.20;;;;;;4208039;28;20235;-78
2022/03/16 08:43:47;;;;;;;4.22;2.22;;;20.70;95.30;;;;;;4210248;28;20621;-77
2022/03/16 08:45:49;;;;;;;2.17;1.90;;;20.70;95.80;;;;;;4210410;28;20214;-77
2022/03/16 08:47:51;;;;;;;3.80;2.00;;;20.70;95.60;;;;;;4212948;28;20798;-75
2022/03/16 08:49:55;;;;;;;4.82;2.13;;;20.70;95.20;;;;;;4213679;28;20222;-75
2022/03/16 08:51:57;;;;;;;2.00;1.63;;;20.60;95.00;;;;;;4212165;28;20609;-75
2022/03/16 08:54:00;;;;;;;3.97;1.90;;;20.80;95.00;;;;;;4210377;28;20218;-75
2022/03/16 08:56:04;;;;;;;6.28;1.77;;;20.80;96.20;;;;;;4202603;28;20621;-75
2022/03/16 08:58:06;;;;;;;3.95;1.70;;;20.80;96.10;;;;;;4206647;28;20215;-76
2022/03/16 09:00:14;;;;;;;5.53;1.70;;;20.80;95.60;;;;;;4212442;28;20214;-76
2022/03/16 09:02:16;;;;;;;2.28;1.80;;;20.70;96.10;;;;;;4207362;28;20621;-76
2022/03/16 09:04:21;;;;;;;2.72;2.00;;;20.80;95.60;;;;;;4212507;28;20218;-76
2022/03/16 09:06:23;;;;;;;2.13;1.98;;;20.80;95.60;;;;;;4205524;28;20610;-76
2022/03/16 09:08:26;;;;;;;3.35;2.13;;;20.80;95.80;;;;;;4205155;28;20210;-76
2022/03/16 09:10:28;;;;;;;2.03;1.83;;;20.80;96.50;;;;;;4210938;28;20206;-77
2022/03/16 09:12:32;;;;;;;3.20;1.92;;;20.80;95.90;;;;;;4211814;28;20225;-76
2022/03/16 09:14:34;;;;;;;4.80;2.00;;;20.80;96.40;;;;;;4216187;28;20259;-76
2022/03/16 09:16:36;;;;;;;4.10;1.77;;;20.90;95.90;;;;;;4207259;28;20256;-76
2022/03/16 09:18:39;;;;;;;4.68;2.40;;;20.90;95.10;;;;;;4212680;28;20663;-75
2022/03/16 09:20:41;;;;;;;5.45;1.95;;;20.90;95.30;;;;;;4209017;28;20238;-76
2022/03/16 09:22:43;;;;;;;4.75;1.98;;;20.90;96.00;;;;;;4212825;28;20210;-76
2022/03/16 09:24:48;;;;;;;2.38;2.00;;;20.90;96.20;;;;;;4218248;28;20732;-77
2022/03/16 09:26:50;;;;;;;2.15;1.60;;;20.90;95.90;;;;;;4213954;28;20724;-76
2022/03/16 09:28:55;;;;;;;2.45;1.80;;;21.00;96.40;;;;;;4209521;28;20261;-75
2022/03/16 09:30:57;;;;;;;4.97;1.85;;;21.00;96.50;;;;;;4209286;28;20214;-75
2022/03/16 09:33:00;;;;;;;2.35;1.40;;;21.10;96.30;;;;;;4214559;28;20689;-75
2022/03/16 09:35:04;;;;;;;2.47;1.60;;;21.10;96.30;;;;;;4212480;28;20206;-76
2022/03/16 09:37:06;;;;;;;3.88;2.13;;;21.10;96.30;;;;;;4209406;28;20267;-75
2022/03/16 09:39:09;;;;;;;4.07;2.35;;;21.10;96.10;;;;;;4212900;28;20271;-76
2022/03/16 09:41:11;;;;;;;6.28;2.17;;;21.20;96.30;;;;;;4218125;28;20242;-76
2022/03/16 09:43:20;;;;;;;2.35;2.10;;;21.20;95.90;;;;;;4207520;28;20223;-76
2022/03/16 09:45:28;;;;;;;4.75;1.98;;;21.20;96.40;;;;;;4215427;28;20217;-75
2022/03/16 09:47:31;;;;;;;3.17;1.90;;;21.20;96.30;;;;;;4211516;28;20222;-76
2022/03/16 09:49:33;;;;;;;4.10;1.92;;;21.20;96.10;;;;;;4215852;28;20268;-76
2022/03/16 09:51:38;;;;;;;2.20;1.80;;;21.30;96.20;;;;;;4213546;28;20214;-76
2022/03/16 09:53:42;;;;;;;3.58;2.35;;;21.30;96.20;;;;;;4210833;28;21068;-77
2022/03/16 09:55:47;;;;;;;3.92;2.17;;;21.30;96.20;;;;;;4212232;28;20210;-77
2022/03/16 09:57:50;;;;;;;4.38;2.40;;;21.30;95.90;;;;;;4212469;28;20225;-76
2022/03/16 09:59:52;;;;;;;4.40;2.80;;;21.30;95.20;;;;;;4207581;28;20213;-76
2022/03/16 10:02:04;;;;;;;5.28;2.17;;;21.40;95.10;;;;;;4212091;28;21621;-74
2022/03/16 10:04:07;;;;;;;1.80;1.70;;;21.30;95.70;;;;;;4211785;28;20912;-77
2022/03/16 10:06:10;;;;;;;2.63;1.60;;;21.40;96.20;;;;;;4210375;28;20219;-76
2022/03/16 10:08:14;;;;;;;2.75;1.77;;;21.40;96.40;;;;;;4212330;28;20218;-73
2022/03/16 10:15:12;;;;;;;5.15;1.60;;;21.50;96.30;;;;;;4210129;28;20198;-73
2022/03/16 10:19:48;;;;;;;2.90;1.60;;;21.50;96.30;;;;;;4210279;28;20203;-73
2022/03/16 10:21:58;;;;;;;3.97;1.73;;;21.50;96.30;;;;;;4215289;28;20230;-73
2022/03/16 10:24:03;;;;;;;2.58;2.10;;;21.50;96.00;;;;;;4215532;28;20221;-76
2022/03/16 10:26:06;;;;;;;5.53;2.00;;;21.60;96.10;;;;;;4213661;28;20211;-76
2022/03/16 10:28:11;;;;;;;6.35;1.88;;;21.60;96.10;;;;;;4211486;28;20939;-75
2022/03/16 10:30:14;;;;;;;4.80;1.95;;;21.60;96.40;;;;;;4209825;28;20214;-74
2022/03/16 10:32:21;;;;;;;3.42;1.90;;;21.60;96.10;;;;;;4211226;28;20234;-77
2022/03/16 10:34:24;;;;;;;2.42;1.55;;;21.60;96.20;;;;;;4207888;28;20260;-76
2022/03/16 10:36:27;;;;;;;1.95;1.75;;;21.70;95.90;;;;;;4213090;28;20660;-76
2022/03/16 10:38:30;;;;;;;3.25;2.10;;;21.70;96.00;;;;;;4209304;28;20234;-76
2022/03/16 10:40:32;;;;;;;2.28;1.65;;;21.70;96.10;;;;;;4215610;28;20731;-75
2022/03/16 10:47:35;;;;;;;3.65;1.90;;;21.70;96.10;;;;;;4212746;28;20201;-76
2022/03/16 10:49:38;;;;;;;3.72;1.83;;;21.80;96.00;;;;;;4212810;28;20326;-76
2022/03/16 10:51:42;;;;;;;4.47;1.92;;;21.80;95.90;;;;;;4210747;28;20936;-74
2022/03/16 10:53:45;;;;;;;3.75;1.48;;;21.80;96.10;;;;;;4211630;28;20268;-76